Time,TemperatureF,DewpointF,PressureIn,WindDirection,WindDirectionDegrees,WindSpeedMPH,WindSpeedGustMPH,Humidity,HourlyPrecipIn,Conditions,Clouds,dailyrainin,SoftwareType,DateUTC
2013-06-17 00:00:00,60.1,55.0,29.58,North,0,0.0,0.0,83,0.00,,,0.00,WUHU216HW,2013-06-17 04:00:00,
2013-06-17 00:01:00,60.1,55.0,29.58,North,0,0.0,0.0,83,0.00,,,0.00,WUHU216HW,2013-06-17 04:01:00,
2013-06-17 00:06:00,59.9,54.8,29.58,North,0,0.0,0.0,83,0.00,,,0.00,WUHU216HW,2013-06-17 04:06:00,
2013-06-17 00:11:00,59.8,54.6,29.58,North,0,0.0,0.0,83,0.00,,,0.00,WUHU216HW,2013-06-17 04:11:00,
2013-06-17 00:17:00,59.4,54.3,29.58,North,0,0.0,0.0,83,0.00,,,0.00,WUHU216HW,2013-06-17 04:17:00,
2013-06-17 00:22:00,59.4,54.3,29.58,North,0,0.0,0.0,83,0.00,,,0.00,WUHU216HW,2013-06-17 04:22:00,
2013-06-17 00:27:00,59.2,54.1,29.57,North,0,0.0,0.0,83,0.00,,,0.00,WUHU216HW,2013-06-17 04:27:00,
2013-06-17 00:32:00,59.0,53.9,29.58,North,0,0.0,0.0,83,0.00,,,0.00,WUHU216HW,2013-06-17 04:32:00,
2013-06-17 00:37:00,58.9,54.0,29.58,North,0,0.0,0.0,84,0.00,,,0.00,WUHU216HW,2013-06-17 04:37:00,
2013-06-17 00:42:00,58.9,54.0,29.58,North,0,0.0,0.0,84,0.00,,,0.00,WUHU216HW,2013-06-17 04:42:00,
2013-06-17 00:47:00,58.9,54.0,29.58,North,0,0.0,0.0,84,0.00,,,0.00,WUHU216HW,2013-06-17 04:47:00,
2013-06-17 01:00:00,58.3,53.5,29.58,North,0,0.0,0.0,84,0.00,,,0.00,WUHU216HW,2013-06-17 05:00:00,
2013-06-17 01:05:00,58.0,53.1,29.59,North,0,0.0,0.0,84,0.00,,,0.00,WUHU216HW,2013-06-17 05:05:00,
2013-06-17 01:10:00,58.0,53.1,29.59,North,0,0.0,0.0,84,0.00,,,0.00,WUHU216HW,2013-06-17 05:10:00,
2013-06-17 01:15:00,57.8,53.3,29.59,North,0,0.0,0.0,85,0.00,,,0.00,WUHU216HW,2013-06-17 05:15:00,
2013-06-17 01:20:00,57.4,52.9,29.59,North,0,0.0,0.0,85,0.00,,,0.00,WUHU216HW,2013-06-17 05:20:00,
2013-06-17 01:25:00,57.2,52.4,29.59,North,0,0.0,0.0,84,0.00,,,0.00,WUHU216HW,2013-06-17 05:25:00,
2013-06-17 01:30:00,57.2,52.4,29.59,North,0,0.0,0.0,84,0.00,,,0.00,WUHU216HW,2013-06-17 05:30:00,
2013-06-17 01:35:00,57.1,52.2,29.59,North,0,0.0,0.0,84,0.00,,,0.00,WUHU216HW,2013-06-17 05:35:00,
2013-06-17 01:40:00,57.1,52.2,29.59,North,0,0.0,0.0,84,0.00,,,0.00,WUHU216HW,2013-06-17 05:40:00,
2013-06-17 02:00:00,56.3,51.8,29.59,North,0,0.0,0.0,85,0.00,,,0.00,WUHU216HW,2013-06-17 06:00:00,
2013-06-17 02:05:00,56.2,51.7,29.59,North,0,0.0,0.0,85,0.00,,,0.00,WUHU216HW,2013-06-17 06:05:00,
2013-06-17 02:10:00,56.2,51.7,29.59,North,0,0.0,0.0,85,0.00,,,0.00,WUHU216HW,2013-06-17 06:10:00,
2013-06-17 02:15:00,56.0,51.9,29.59,North,0,0.0,0.0,86,0.00,,,0.00,WUHU216HW,2013-06-17 06:15:00,
2013-06-17 02:20:00,55.8,51.7,29.59,North,0,0.0,0.0,86,0.00,,,0.00,WUHU216HW,2013-06-17 06:20:00,
2013-06-17 02:25:00,55.8,51.7,29.59,North,0,0.0,0.0,86,0.00,,,0.00,WUHU216HW,2013-06-17 06:25:00,
2013-06-17 02:30:00,55.8,51.7,29.59,North,0,0.0,0.0,86,0.00,,,0.00,WUHU216HW,2013-06-17 06:30:00,
2013-06-17 02:35:00,55.6,51.5,29.59,North,0,0.0,0.0,86,0.00,,,0.00,WUHU216HW,2013-06-17 06:35:00,
2013-06-17 02:40:00,55.4,51.3,29.59,North,0,0.0,0.0,86,0.00,,,0.00,WUHU216HW,2013-06-17 06:40:00,
2013-06-17 02:45:00,55.4,51.3,29.59,North,0,0.0,0.0,86,0.00,,,0.00,WUHU216HW,2013-06-17 06:45:00,
2013-06-17 02:50:00,55.4,51.3,29.59,North,0,0.0,0.0,86,0.00,,,0.00,WUHU216HW,2013-06-17 06:50:00,
2013-06-17 03:00:00,55.1,51.0,29.59,North,0,0.0,0.0,86,0.00,,,0.00,WUHU216HW,2013-06-17 07:00:00,
2013-06-17 03:05:00,55.1,51.0,29.59,North,0,0.0,0.0,86,0.00,,,0.00,WUHU216HW,2013-06-17 07:05:00,
2013-06-17 03:10:00,55.1,51.0,29.59,North,0,0.0,0.0,86,0.00,,,0.00,WUHU216HW,2013-06-17 07:10:00,
2013-06-17 03:15:00,54.9,50.8,29.59,North,0,0.0,0.0,86,0.00,,,0.00,WUHU216HW,2013-06-17 07:15:00,
2013-06-17 03:20:00,54.9,50.8,29.59,North,0,0.0,0.0,86,0.00,,,0.00,WUHU216HW,2013-06-17 07:20:00,
2013-06-17 03:25:00,54.7,50.6,29.60,North,0,0.0,0.0,86,0.00,,,0.00,WUHU216HW,2013-06-17 07:25:00,
2013-06-17 03:30:00,54.7,50.6,29.60,North,0,0.0,0.0,86,0.00,,,0.00,WUHU216HW,2013-06-17 07:30:00,
2013-06-17 03:35:00,54.7,50.6,29.60,North,0,0.0,0.0,86,0.00,,,0.00,WUHU216HW,2013-06-17 07:35:00,
2013-06-17 03:40:00,54.7,50.6,29.60,North,0,0.0,0.0,86,0.00,,,0.00,WUHU216HW,2013-06-17 07:40:00,
2013-06-17 04:00:00,54.4,50.6,29.60,North,0,0.0,0.0,87,0.00,,,0.00,WUHU216HW,2013-06-17 08:00:00,
2013-06-17 04:05:00,54.4,50.6,29.61,North,0,0.0,0.0,87,0.00,,,0.00,WUHU216HW,2013-06-17 08:05:00,
2013-06-17 04:10:00,54.4,50.6,29.60,North,0,0.0,0.0,87,0.00,,,0.00,WUHU216HW,2013-06-17 08:10:00,
2013-06-17 04:15:00,54.4,50.6,29.60,North,0,0.0,0.0,87,0.00,,,0.00,WUHU216HW,2013-06-17 08:15:00,
2013-06-17 04:20:00,54.2,50.4,29.60,North,0,0.0,0.0,87,0.00,,,0.00,WUHU216HW,2013-06-17 08:20:00,
2013-06-17 04:25:00,54.0,50.2,29.61,North,0,0.0,0.0,87,0.00,,,0.00,WUHU216HW,2013-06-17 08:25:00,
2013-06-17 04:30:00,53.8,50.1,29.61,North,0,0.0,0.0,87,0.00,,,0.00,WUHU216HW,2013-06-17 08:30:00,
2013-06-17 04:35:00,53.6,49.9,29.61,North,0,0.0,0.0,87,0.00,,,0.00,WUHU216HW,2013-06-17 08:35:00,
2013-06-17 04:40:00,53.6,49.9,29.61,North,0,0.0,0.0,87,0.00,,,0.00,WUHU216HW,2013-06-17 08:40:00,
2013-06-17 05:00:00,53.5,50.0,29.61,North,0,0.0,0.0,88,0.00,,,0.00,WUHU216HW,2013-06-17 09:00:00,
2013-06-17 05:05:00,53.5,50.0,29.61,North,0,0.0,0.0,88,0.00,,,0.00,WUHU216HW,2013-06-17 09:05:00,
2013-06-17 05:10:00,53.3,49.8,29.61,North,0,0.0,0.0,88,0.00,,,0.00,WUHU216HW,2013-06-17 09:10:00,
2013-06-17 05:15:00,53.1,49.6,29.61,North,0,0.0,0.0,88,0.00,,,0.00,WUHU216HW,2013-06-17 09:15:00,
2013-06-17 05:20:00,53.1,49.6,29.61,North,0,0.0,0.0,88,0.00,,,0.00,WUHU216HW,2013-06-17 09:20:00,
2013-06-17 05:25:00,53.1,49.6,29.62,North,0,0.0,0.0,88,0.00,,,0.00,WUHU216HW,2013-06-17 09:25:00,
2013-06-17 05:30:00,52.9,49.4,29.62,North,0,0.0,0.0,88,0.00,,,0.00,WUHU216HW,2013-06-17 09:30:00,
2013-06-17 05:35:00,52.9,49.4,29.62,North,0,0.0,0.0,88,0.00,,,0.00,WUHU216HW,2013-06-17 09:35:00,
2013-06-17 05:40:00,52.9,49.4,29.62,North,0,0.0,0.0,88,0.00,,,0.00,WUHU216HW,2013-06-17 09:40:00,
2013-06-17 05:45:00,52.9,49.4,29.62,North,0,0.0,0.0,88,0.00,,,0.00,WUHU216HW,2013-06-17 09:45:00,
2013-06-17 05:50:00,52.9,49.4,29.62,North,0,0.0,0.0,88,0.00,,,0.00,WUHU216HW,2013-06-17 09:50:00,
2013-06-17 05:55:00,52.9,49.4,29.62,North,0,0.0,0.0,88,0.00,,,0.00,WUHU216HW,2013-06-17 09:55:00,
2013-06-17 06:00:00,52.9,49.8,29.62,North,0,0.0,0.0,89,0.00,,,0.00,WUHU216HW,2013-06-17 10:00:00,
2013-06-17 06:05:00,52.9,49.8,29.61,North,0,0.0,0.0,89,0.00,,,0.00,WUHU216HW,2013-06-17 10:05:00,
2013-06-17 06:10:00,53.1,50.0,29.62,North,0,0.0,0.0,89,0.00,,,0.00,WUHU216HW,2013-06-17 10:10:00,
2013-06-17 06:15:00,53.3,50.1,29.62,North,0,0.0,0.0,89,0.00,,,0.00,WUHU216HW,2013-06-17 10:15:00,
2013-06-17 06:20:00,53.3,50.1,29.62,North,0,0.0,0.0,89,0.00,,,0.00,WUHU216HW,2013-06-17 10:20:00,
2013-06-17 06:25:00,53.5,50.3,29.62,North,0,0.0,0.0,89,0.00,,,0.00,WUHU216HW,2013-06-17 10:25:00,
2013-06-17 06:30:00,53.5,50.3,29.62,North,0,0.0,0.0,89,0.00,,,0.00,WUHU216HW,2013-06-17 10:30:00,
2013-06-17 06:35:00,53.6,50.5,29.62,North,0,0.0,0.0,89,0.00,,,0.00,WUHU216HW,2013-06-17 10:35:00,
2013-06-17 06:40:00,53.6,50.5,29.62,North,0,0.0,0.0,89,0.00,,,0.00,WUHU216HW,2013-06-17 10:40:00,
2013-06-17 07:00:00,54.7,51.8,29.63,North,0,0.0,0.0,90,0.00,,,0.00,WUHU216HW,2013-06-17 11:00:00,
2013-06-17 07:05:00,55.1,51.8,29.63,North,0,0.0,0.0,89,0.00,,,0.00,WUHU216HW,2013-06-17 11:05:00,
2013-06-17 07:10:00,55.3,52.4,29.63,North,0,0.0,0.0,90,0.00,,,0.00,WUHU216HW,2013-06-17 11:10:00,
2013-06-17 07:15:00,55.4,52.6,29.64,North,0,0.0,0.0,90,0.00,,,0.00,WUHU216HW,2013-06-17 11:15:00,
2013-06-17 07:20:00,55.8,52.9,29.64,North,0,0.0,0.0,90,0.00,,,0.00,WUHU216HW,2013-06-17 11:20:00,
2013-06-17 07:25:00,56.2,53.3,29.63,North,0,0.0,0.0,90,0.00,,,0.00,WUHU216HW,2013-06-17 11:25:00,
2013-06-17 07:30:00,56.5,53.6,29.64,North,0,0.0,0.0,90,0.00,,,0.00,WUHU216HW,2013-06-17 11:30:00,
2013-06-17 07:35:00,56.7,53.8,29.64,North,0,0.0,0.0,90,0.00,,,0.00,WUHU216HW,2013-06-17 11:35:00,
2013-06-17 07:40:00,56.7,53.8,29.64,North,0,0.0,0.0,90,0.00,,,0.00,WUHU216HW,2013-06-17 11:40:00,
2013-06-17 08:00:00,60.1,57.5,29.64,North,0,0.0,0.0,91,0.00,,,0.00,WUHU216HW,2013-06-17 12:00:00,
2013-06-17 08:05:00,60.8,58.0,29.64,North,0,0.0,0.0,90,0.00,,,0.00,WUHU216HW,2013-06-17 12:05:00,
2013-06-17 08:10:00,61.6,58.7,29.64,North,0,0.0,0.0,90,0.00,,,0.00,WUHU216HW,2013-06-17 12:10:00,
2013-06-17 08:15:00,62.6,59.4,29.64,North,0,0.0,0.0,89,0.00,,,0.00,WUHU216HW,2013-06-17 12:15:00,
2013-06-17 08:20:00,63.7,60.5,29.63,North,0,0.0,0.0,89,0.00,,,0.00,WUHU216HW,2013-06-17 12:20:00,
2013-06-17 08:25:00,64.4,60.6,29.64,North,0,0.0,0.0,87,0.00,,,0.00,WUHU216HW,2013-06-17 12:25:00,
2013-06-17 08:30:00,65.5,61.8,29.64,North,0,0.0,0.0,88,0.00,,,0.00,WUHU216HW,2013-06-17 12:30:00,
2013-06-17 08:35:00,66.4,62.1,29.63,North,0,0.0,0.0,86,0.00,,,0.00,WUHU216HW,2013-06-17 12:35:00,
2013-06-17 08:40:00,67.3,63.0,29.64,North,0,0.0,0.0,86,0.00,,,0.00,WUHU216HW,2013-06-17 12:40:00,
2013-06-17 08:45:00,68.2,63.2,29.63,North,0,0.0,0.0,84,0.00,,,0.00,WUHU216HW,2013-06-17 12:45:00,
2013-06-17 08:50:00,69.1,63.4,29.64,North,0,0.0,0.0,82,0.00,,,0.00,WUHU216HW,2013-06-17 12:50:00,
2013-06-17 08:55:00,69.7,63.6,29.63,North,0,0.0,0.0,81,0.00,,,0.00,WUHU216HW,2013-06-17 12:55:00,
2013-06-17 09:00:00,69.8,63.4,29.63,North,0,0.0,0.0,80,0.00,,,0.00,WUHU216HW,2013-06-17 13:00:00,
2013-06-17 09:05:00,70.7,63.9,29.63,North,0,0.0,0.0,79,0.00,,,0.00,WUHU216HW,2013-06-17 13:05:00,
2013-06-17 09:10:00,71.3,64.1,29.63,North,0,0.0,0.0,78,0.00,,,0.00,WUHU216HW,2013-06-17 13:10:00,
2013-06-17 09:15:00,71.6,64.5,29.62,North,0,0.0,0.0,78,0.00,,,0.00,WUHU216HW,2013-06-17 13:15:00,
2013-06-17 09:20:00,72.0,64.0,29.63,North,0,0.0,0.0,76,0.00,,,0.00,WUHU216HW,2013-06-17 13:20:00,
2013-06-17 09:25:00,72.4,64.7,29.62,North,0,0.0,0.0,77,0.00,,,0.00,WUHU216HW,2013-06-17 13:25:00,
2013-06-17 09:30:00,72.7,65.1,29.62,North,0,0.0,0.0,77,0.00,,,0.00,WUHU216HW,2013-06-17 13:30:00,
2013-06-17 09:35:00,73.1,65.4,29.62,North,0,0.0,0.0,77,0.00,,,0.00,WUHU216HW,2013-06-17 13:35:00,
2013-06-17 09:40:00,73.1,65.4,29.62,North,0,0.0,0.0,77,0.00,,,0.00,WUHU216HW,2013-06-17 13:40:00,
2013-06-17 10:00:00,76.1,64.4,29.62,North,0,0.0,0.0,67,0.00,,,0.00,WUHU216HW,2013-06-17 14:00:00,
2013-06-17 10:05:00,76.1,63.9,29.62,North,0,0.0,0.0,66,0.00,,,0.00,WUHU216HW,2013-06-17 14:05:00,
2013-06-17 10:10:00,76.5,64.3,29.62,North,0,0.0,0.0,66,0.00,,,0.00,WUHU216HW,2013-06-17 14:10:00,
2013-06-17 10:15:00,77.2,65.0,29.62,North,0,0.0,0.0,66,0.00,,,0.00,WUHU216HW,2013-06-17 14:15:00,
2013-06-17 10:20:00,77.4,63.8,29.62,North,0,0.0,0.0,63,0.00,,,0.00,WUHU216HW,2013-06-17 14:20:00,
2013-06-17 10:25:00,77.8,63.7,29.63,North,0,0.0,0.0,62,0.00,,,0.00,WUHU216HW,2013-06-17 14:25:00,
2013-06-17 10:30:00,77.9,64.8,29.62,North,0,0.0,0.0,64,0.00,,,0.00,WUHU216HW,2013-06-17 14:30:00,
2013-06-17 10:35:00,78.7,65.4,29.62,North,0,0.0,0.0,64,0.00,,,0.00,WUHU216HW,2013-06-17 14:35:00,
2013-06-17 10:40:00,79.2,64.6,29.62,North,0,0.0,0.0,61,0.00,,,0.00,WUHU216HW,2013-06-17 14:40:00,
2013-06-17 10:45:00,79.6,65.0,29.62,North,0,0.0,0.0,61,0.00,,,0.00,WUHU216HW,2013-06-17 14:45:00,
2013-06-17 10:50:00,79.9,64.4,29.62,North,0,0.0,0.0,59,0.00,,,0.00,WUHU216HW,2013-06-17 14:50:00,
2013-06-17 10:55:00,79.9,64.4,29.62,North,0,0.0,0.0,59,0.00,,,0.00,WUHU216HW,2013-06-17 14:55:00,
2013-06-17 11:00:00,79.6,61.4,29.62,North,0,0.0,0.0,54,0.00,,,0.00,WUHU216HW,2013-06-17 15:00:00,
2013-06-17 11:05:00,79.6,64.5,29.61,North,0,0.0,0.0,60,0.00,,,0.00,WUHU216HW,2013-06-17 15:05:00,
2013-06-17 11:10:00,80.1,63.5,29.61,North,0,0.0,0.0,57,0.00,,,0.00,WUHU216HW,2013-06-17 15:10:00,
2013-06-17 11:15:00,81.0,64.8,29.61,North,0,0.0,0.0,58,0.00,,,0.00,WUHU216HW,2013-06-17 15:15:00,
2013-06-17 11:20:00,81.4,63.5,29.61,North,0,0.0,0.0,55,0.00,,,0.00,WUHU216HW,2013-06-17 15:20:00,
2013-06-17 11:25:00,81.7,63.9,29.61,North,0,0.0,0.0,55,0.00,,,0.00,WUHU216HW,2013-06-17 15:25:00,
2013-06-17 11:30:00,82.1,64.2,29.61,North,0,0.0,0.0,55,0.00,,,0.00,WUHU216HW,2013-06-17 15:30:00,
2013-06-17 11:35:00,82.1,63.2,29.60,North,0,0.0,0.0,53,0.00,,,0.00,WUHU216HW,2013-06-17 15:35:00,
2013-06-17 11:40:00,82.1,63.2,29.60,North,0,0.0,0.0,53,0.00,,,0.00,WUHU216HW,2013-06-17 15:40:00,
2013-06-17 12:00:00,82.8,64.4,29.60,North,0,0.0,0.0,54,0.00,,,0.00,WUHU216HW,2013-06-17 16:00:00,
2013-06-17 12:05:00,83.5,64.5,29.60,North,0,0.0,0.0,53,0.00,,,0.00,WUHU216HW,2013-06-17 16:05:00,
2013-06-17 12:10:00,83.7,63.2,29.60,North,0,0.0,0.0,50,0.00,,,0.00,WUHU216HW,2013-06-17 16:10:00,
2013-06-17 12:15:00,83.9,64.9,29.60,North,0,0.0,0.0,53,0.00,,,0.00,WUHU216HW,2013-06-17 16:15:00,
2013-06-17 12:20:00,84.6,65.6,29.60,North,0,0.0,0.0,53,0.00,,,0.00,WUHU216HW,2013-06-17 16:20:00,
2013-06-17 12:25:00,85.0,64.9,29.60,North,0,0.0,0.0,51,0.00,,,0.00,WUHU216HW,2013-06-17 16:25:00,
2013-06-17 12:30:00,84.6,64.5,29.60,North,0,0.0,0.0,51,0.00,,,0.00,WUHU216HW,2013-06-17 16:30:00,
2013-06-17 12:35:00,84.6,64.1,29.60,North,0,0.0,0.0,50,0.00,,,0.00,WUHU216HW,2013-06-17 16:35:00,
2013-06-17 12:40:00,84.6,64.1,29.60,North,0,0.0,0.0,50,0.00,,,0.00,WUHU216HW,2013-06-17 16:40:00,
2013-06-17 12:45:00,84.4,63.3,29.60,North,0,0.0,0.0,49,0.00,,,0.00,WUHU216HW,2013-06-17 16:45:00,
2013-06-17 12:50:00,84.8,64.7,29.60,North,0,0.0,0.0,51,0.00,,,0.00,WUHU216HW,2013-06-17 16:50:00,
2013-06-17 12:55:00,84.2,62.5,29.60,North,0,0.0,0.0,48,0.00,,,0.00,WUHU216HW,2013-06-17 16:55:00,
2013-06-17 13:00:00,84.4,63.3,29.60,North,0,0.0,0.0,49,0.00,,,0.00,WUHU216HW,2013-06-17 17:00:00,
2013-06-17 13:05:00,84.6,64.5,29.60,North,0,0.0,0.0,51,0.00,,,0.00,WUHU216HW,2013-06-17 17:05:00,
2013-06-17 13:10:00,85.0,64.9,29.60,North,0,0.0,0.0,51,0.00,,,0.00,WUHU216HW,2013-06-17 17:10:00,
2013-06-17 13:15:00,85.7,64.4,29.59,North,0,0.0,0.0,49,0.00,,,0.00,WUHU216HW,2013-06-17 17:15:00,
2013-06-17 13:20:00,85.7,65.0,29.59,North,0,0.0,0.0,50,0.00,,,0.00,WUHU216HW,2013-06-17 17:20:00,
2013-06-17 13:25:00,86.0,64.7,29.59,North,0,0.0,0.0,49,0.00,,,0.00,WUHU216HW,2013-06-17 17:25:00,
2013-06-17 13:30:00,86.2,64.3,29.59,North,0,0.0,0.0,48,0.00,,,0.00,WUHU216HW,2013-06-17 17:30:00,
2013-06-17 13:35:00,85.9,63.3,29.59,North,0,0.0,0.0,47,0.00,,,0.00,WUHU216HW,2013-06-17 17:35:00,
2013-06-17 13:40:00,85.9,63.3,29.58,North,0,0.0,0.0,47,0.00,,,0.00,WUHU216HW,2013-06-17 17:40:00,
2013-06-17 13:45:00,85.9,63.3,29.58,North,0,0.0,0.0,47,0.00,,,0.00,WUHU216HW,2013-06-17 17:45:00,
2013-06-17 13:50:00,85.9,63.3,29.58,North,0,0.0,0.0,47,0.00,,,0.00,WUHU216HW,2013-06-17 17:50:00,
2013-06-17 14:00:00,85.9,62.6,29.59,North,0,0.0,0.0,46,0.00,,,0.00,WUHU216HW,2013-06-17 18:00:00,
2013-06-17 14:05:00,86.2,62.4,29.59,North,0,0.0,0.0,45,0.00,,,0.00,WUHU216HW,2013-06-17 18:05:00,
2013-06-17 14:10:00,86.4,63.2,29.59,North,0,0.0,0.0,46,0.00,,,0.00,WUHU216HW,2013-06-17 18:10:00,
2013-06-17 14:15:00,86.8,63.5,29.59,North,0,0.0,0.0,46,0.00,,,0.00,WUHU216HW,2013-06-17 18:15:00,
2013-06-17 14:20:00,86.0,62.8,29.59,North,0,0.0,0.0,46,0.00,,,0.00,WUHU216HW,2013-06-17 18:20:00,
2013-06-17 14:25:00,85.1,61.4,29.59,North,0,0.0,0.0,45,0.00,,,0.00,WUHU216HW,2013-06-17 18:25:00,
2013-06-17 14:30:00,84.1,60.4,29.59,North,0,0.0,0.0,45,0.00,,,0.00,WUHU216HW,2013-06-17 18:30:00,
2013-06-17 14:35:00,83.5,61.1,29.59,North,0,0.0,0.0,47,0.00,,,0.00,WUHU216HW,2013-06-17 18:35:00,
2013-06-17 14:40:00,84.1,61.7,29.59,North,0,0.0,0.0,47,0.00,,,0.00,WUHU216HW,2013-06-17 18:40:00,
2013-06-17 14:45:00,84.8,61.7,29.59,North,0,0.0,0.0,46,0.00,,,0.00,WUHU216HW,2013-06-17 18:45:00,
2013-06-17 14:50:00,85.5,63.6,29.59,North,0,0.0,0.0,48,0.00,,,0.00,WUHU216HW,2013-06-17 18:50:00,
2013-06-17 14:55:00,85.3,63.5,29.59,North,0,0.0,0.0,48,0.00,,,0.00,WUHU216HW,2013-06-17 18:55:00,
2013-06-17 15:00:00,84.6,60.3,29.59,North,0,0.0,0.0,44,0.00,,,0.00,WUHU216HW,2013-06-17 19:00:00,
2013-06-17 15:05:00,84.1,60.4,29.59,North,0,0.0,0.0,45,0.00,,,0.00,WUHU216HW,2013-06-17 19:05:00,
2013-06-17 15:10:00,82.4,59.5,29.59,North,0,0.0,0.0,46,0.00,,,0.00,WUHU216HW,2013-06-17 19:10:00,
2013-06-17 15:15:00,81.5,59.9,29.59,North,0,0.0,0.0,48,0.00,,,0.00,WUHU216HW,2013-06-17 19:15:00,
2013-06-17 15:20:00,81.0,59.4,29.58,North,0,0.0,0.0,48,0.00,,,0.00,WUHU216HW,2013-06-17 19:20:00,
2013-06-17 15:25:00,80.8,59.9,29.59,North,0,0.0,0.0,49,0.00,,,0.00,WUHU216HW,2013-06-17 19:25:00,
2013-06-17 15:30:00,80.5,59.5,29.60,North,0,0.0,0.0,49,0.00,,,0.00,WUHU216HW,2013-06-17 19:30:00,
2013-06-17 15:35:00,80.1,59.9,29.61,North,0,0.0,0.0,50,0.00,,,0.00,WUHU216HW,2013-06-17 19:35:00,
2013-06-17 15:40:00,78.8,58.1,29.63,North,0,0.0,0.0,49,0.00,,,0.00,WUHU216HW,2013-06-17 19:40:00,
2013-06-17 15:45:00,76.3,59.9,29.67,North,0,0.0,0.0,57,0.00,,,0.00,WUHU216HW,2013-06-17 19:45:00,
2013-06-17 15:50:00,71.8,59.9,29.66,North,0,0.0,0.0,66,0.12,,,0.09,WUHU216HW,2013-06-17 19:50:00,
2013-06-17 15:55:00,69.5,58.0,29.65,North,0,0.0,0.0,67,0.20,,,0.18,WUHU216HW,2013-06-17 19:55:00,
2013-06-17 16:00:00,67.9,57.8,29.65,North,0,0.0,0.0,70,0.20,,,0.20,WUHU216HW,2013-06-17 20:00:00,
2013-06-17 16:05:00,67.5,57.4,29.65,North,0,0.0,0.0,70,0.20,,,0.20,WUHU216HW,2013-06-17 20:05:00,
2013-06-17 16:10:00,67.5,57.8,29.66,North,0,0.0,0.0,71,0.20,,,0.20,WUHU216HW,2013-06-17 20:10:00,
2013-06-17 16:15:00,67.7,58.3,29.65,North,0,0.0,0.0,72,0.20,,,0.20,WUHU216HW,2013-06-17 20:15:00,
2013-06-17 16:20:00,67.5,58.6,29.66,North,0,0.0,0.0,73,0.20,,,0.20,WUHU216HW,2013-06-17 20:20:00,
2013-06-17 16:25:00,67.0,58.8,29.66,North,0,0.0,0.0,75,0.20,,,0.20,WUHU216HW,2013-06-17 20:25:00,
2013-06-17 16:30:00,66.6,58.4,29.64,North,0,0.0,0.0,75,0.20,,,0.20,WUHU216HW,2013-06-17 20:30:00,
2013-06-17 16:35:00,66.6,58.4,29.65,North,0,0.0,0.0,75,0.20,,,0.20,WUHU216HW,2013-06-17 20:35:00,
2013-06-17 16:40:00,66.4,58.6,29.65,North,0,0.0,0.0,76,0.20,,,0.20,WUHU216HW,2013-06-17 20:40:00,
2013-06-17 16:45:00,66.2,58.4,29.65,North,0,0.0,0.0,76,0.17,,,0.20,WUHU216HW,2013-06-17 20:45:00,
2013-06-17 16:50:00,66.2,58.8,29.65,North,0,0.0,0.0,77,0.06,,,0.20,WUHU216HW,2013-06-17 20:50:00,
2013-06-17 16:55:00,66.1,58.6,29.65,North,0,0.0,0.0,77,0.00,,,0.20,WUHU216HW,2013-06-17 20:55:00,
2013-06-17 17:01:00,66.1,59.1,29.65,North,0,0.0,0.0,78,0.00,,,0.20,WUHU216HW,2013-06-17 21:01:00,
2013-06-17 17:06:00,65.7,59.1,29.65,North,0,0.0,0.0,79,0.00,,,0.20,WUHU216HW,2013-06-17 21:06:00,
2013-06-17 17:11:00,65.3,59.0,29.65,North,0,0.0,0.0,80,0.00,,,0.20,WUHU216HW,2013-06-17 21:11:00,
2013-06-17 17:16:00,65.2,59.2,29.64,North,0,0.0,0.0,81,0.00,,,0.20,WUHU216HW,2013-06-17 21:16:00,
2013-06-17 17:21:00,65.0,59.1,29.64,North,0,0.0,0.0,81,0.00,,,0.20,WUHU216HW,2013-06-17 21:21:00,
2013-06-17 17:26:00,65.2,59.2,29.64,North,0,0.0,0.0,81,0.00,,,0.20,WUHU216HW,2013-06-17 21:26:00,
2013-06-17 17:31:00,65.7,60.0,29.65,North,0,0.0,0.0,82,0.00,,,0.20,WUHU216HW,2013-06-17 21:31:00,
2013-06-17 17:36:00,65.9,60.0,29.65,North,0,0.0,0.0,81,0.00,,,0.20,WUHU216HW,2013-06-17 21:36:00,
2013-06-17 17:41:00,66.1,60.1,29.65,North,0,0.0,0.0,81,0.00,,,0.20,WUHU216HW,2013-06-17 21:41:00,
2013-06-17 17:46:00,66.1,60.1,29.65,North,0,0.0,0.0,81,0.00,,,0.20,WUHU216HW,2013-06-17 21:46:00,
2013-06-17 18:00:00,66.2,59.9,29.64,North,0,0.0,0.0,80,0.00,,,0.20,WUHU216HW,2013-06-17 22:00:00,
2013-06-17 18:05:00,66.1,59.8,29.64,North,0,0.0,0.0,80,0.00,,,0.20,WUHU216HW,2013-06-17 22:05:00,
2013-06-17 18:10:00,66.1,60.1,29.64,North,0,0.0,0.0,81,0.00,,,0.20,WUHU216HW,2013-06-17 22:10:00,
2013-06-17 18:15:00,66.2,60.6,29.64,North,0,0.0,0.0,82,0.00,,,0.20,WUHU216HW,2013-06-17 22:15:00,
2013-06-17 18:20:00,66.2,60.3,29.64,North,0,0.0,0.0,81,0.00,,,0.20,WUHU216HW,2013-06-17 22:20:00,
2013-06-17 18:25:00,66.2,60.3,29.64,North,0,0.0,0.0,81,0.00,,,0.20,WUHU216HW,2013-06-17 22:25:00,
2013-06-17 18:30:00,66.4,60.5,29.64,North,0,0.0,0.0,81,0.00,,,0.20,WUHU216HW,2013-06-17 22:30:00,
2013-06-17 18:35:00,66.4,60.1,29.64,North,0,0.0,0.0,80,0.00,,,0.20,WUHU216HW,2013-06-17 22:35:00,
2013-06-17 18:40:00,66.4,60.1,29.64,North,0,0.0,0.0,80,0.00,,,0.20,WUHU216HW,2013-06-17 22:40:00,
2013-06-17 19:00:00,66.1,59.8,29.63,North,0,0.0,0.0,80,0.00,,,0.20,WUHU216HW,2013-06-17 23:00:00,
2013-06-17 19:05:00,66.1,59.8,29.63,North,0,0.0,0.0,80,0.00,,,0.20,WUHU216HW,2013-06-17 23:05:00,
2013-06-17 20:00:00,64.8,59.9,29.65,North,0,0.0,0.0,84,0.00,,,0.20,WUHU216HW,2013-06-18 00:00:00,
2013-06-17 20:05:00,64.8,59.9,29.65,North,0,0.0,0.0,84,0.00,,,0.20,WUHU216HW,2013-06-18 00:05:00,
2013-06-17 20:10:00,64.6,59.3,29.65,North,0,0.0,0.0,83,0.00,,,0.20,WUHU216HW,2013-06-18 00:10:00,
2013-06-17 20:15:00,64.4,59.1,29.65,North,0,0.0,0.0,83,0.00,,,0.20,WUHU216HW,2013-06-18 00:15:00,
2013-06-17 20:20:00,64.3,59.0,29.66,North,0,0.0,0.0,83,0.00,,,0.20,WUHU216HW,2013-06-18 00:20:00,
2013-06-17 20:25:00,64.1,58.8,29.66,North,0,0.0,0.0,83,0.00,,,0.20,WUHU216HW,2013-06-18 00:25:00,
2013-06-17 20:30:00,63.9,59.0,29.66,North,0,0.0,0.0,84,0.00,,,0.20,WUHU216HW,2013-06-18 00:30:00,
2013-06-17 20:35:00,63.7,58.8,29.66,North,0,0.0,0.0,84,0.00,,,0.20,WUHU216HW,2013-06-18 00:35:00,
2013-06-17 20:40:00,63.7,58.8,29.66,North,0,0.0,0.0,84,0.00,,,0.20,WUHU216HW,2013-06-18 00:40:00,
2013-06-17 21:00:00,63.2,58.6,29.67,North,0,0.0,0.0,85,0.00,,,0.20,WUHU216HW,2013-06-18 01:00:00,
2013-06-17 21:05:00,63.2,58.6,29.67,North,0,0.0,0.0,85,0.00,,,0.20,WUHU216HW,2013-06-18 01:05:00,
2013-06-17 21:10:00,63.4,58.8,29.68,North,0,0.0,0.0,85,0.00,,,0.20,WUHU216HW,2013-06-18 01:10:00,
2013-06-17 21:15:00,63.4,59.1,29.68,North,0,0.0,0.0,86,0.00,,,0.20,WUHU216HW,2013-06-18 01:15:00,
2013-06-17 21:20:00,63.4,59.1,29.68,North,0,0.0,0.0,86,0.00,,,0.20,WUHU216HW,2013-06-18 01:20:00,
2013-06-17 21:25:00,63.4,59.1,29.68,North,0,0.0,0.0,86,0.00,,,0.20,WUHU216HW,2013-06-18 01:25:00,
2013-06-17 21:30:00,63.4,59.1,29.69,North,0,0.0,0.0,86,0.00,,,0.20,WUHU216HW,2013-06-18 01:30:00,
2013-06-17 21:35:00,63.4,59.1,29.69,North,0,0.0,0.0,86,0.00,,,0.20,WUHU216HW,2013-06-18 01:35:00,
2013-06-17 21:40:00,63.4,59.1,29.69,North,0,0.0,0.0,86,0.00,,,0.20,WUHU216HW,2013-06-18 01:40:00,
2013-06-17 22:00:00,63.0,59.1,29.69,North,0,0.0,0.0,87,0.00,,,0.20,WUHU216HW,2013-06-18 02:00:00,
2013-06-17 22:05:00,63.0,59.1,29.69,North,0,0.0,0.0,87,0.00,,,0.20,WUHU216HW,2013-06-18 02:05:00,
2013-06-17 22:10:00,63.0,59.1,29.69,North,0,0.0,0.0,87,0.00,,,0.20,WUHU216HW,2013-06-18 02:10:00,
2013-06-17 22:15:00,63.0,59.1,29.69,North,0,0.0,0.0,87,0.00,,,0.20,WUHU216HW,2013-06-18 02:15:00,
2013-06-17 22:20:00,63.0,59.1,29.69,North,0,0.0,0.0,87,0.00,,,0.20,WUHU216HW,2013-06-18 02:20:00,
2013-06-17 22:25:00,63.0,59.1,29.69,North,0,0.0,0.0,87,0.00,,,0.20,WUHU216HW,2013-06-18 02:25:00,
2013-06-17 22:30:00,63.0,59.1,29.69,North,0,0.0,0.0,87,0.00,,,0.20,WUHU216HW,2013-06-18 02:30:00,
2013-06-17 22:35:00,63.0,59.1,29.69,North,0,0.0,0.0,87,0.00,,,0.20,WUHU216HW,2013-06-18 02:35:00,
2013-06-17 22:40:00,62.8,59.0,29.69,North,0,0.0,0.0,87,0.00,,,0.20,WUHU216HW,2013-06-18 02:40:00,
2013-06-17 22:45:00,62.6,58.8,29.69,North,0,0.0,0.0,87,0.00,,,0.20,WUHU216HW,2013-06-18 02:45:00,
2013-06-17 22:50:00,62.6,58.8,29.69,North,0,0.0,0.0,87,0.00,,,0.20,WUHU216HW,2013-06-18 02:50:00,
2013-06-17 22:55:00,62.6,58.8,29.69,North,0,0.0,0.0,87,0.00,,,0.20,WUHU216HW,2013-06-18 02:55:00,
2013-06-17 23:00:00,62.5,58.6,29.69,North,0,0.0,0.0,87,0.00,,,0.20,WUHU216HW,2013-06-18 03:00:00,
2013-06-17 23:05:00,62.5,58.6,29.69,North,0,0.0,0.0,87,0.00,,,0.20,WUHU216HW,2013-06-18 03:05:00,
2013-06-17 23:10:00,62.5,58.6,29.69,North,0,0.0,0.0,87,0.00,,,0.20,WUHU216HW,2013-06-18 03:10:00,
2013-06-17 23:15:00,62.3,58.4,29.69,North,0,0.0,0.0,87,0.00,,,0.20,WUHU216HW,2013-06-18 03:15:00,
2013-06-17 23:20:00,62.3,58.4,29.69,North,0,0.0,0.0,87,0.00,,,0.20,WUHU216HW,2013-06-18 03:20:00,
2013-06-17 23:25:00,62.1,58.2,29.69,North,0,0.0,0.0,87,0.00,,,0.20,WUHU216HW,2013-06-18 03:25:00,
2013-06-17 23:30:00,61.9,58.1,29.69,North,0,0.0,0.0,87,0.00,,,0.20,WUHU216HW,2013-06-18 03:30:00,
2013-06-17 23:35:00,61.9,58.1,29.69,North,0,0.0,0.0,87,0.00,,,0.20,WUHU216HW,2013-06-18 03:35:00,
2013-06-17 23:40:00,61.9,58.1,29.69,North,0,0.0,0.0,87,0.00,,,0.20,WUHU216HW,2013-06-18 03:40:00,
2013-06-17 23:45:00,61.7,57.9,29.69,North,0,0.0,0.0,87,0.00,,,0.20,WUHU216HW,2013-06-18 03:45:00,
2013-06-17 23:51:00,61.7,57.9,29.69,North,0,0.0,0.0,87,0.00,,,0.20,WUHU216HW,2013-06-18 03:51:00,
2013-06-17 23:56:00,61.7,57.9,29.69,North,0,0.0,0.0,87,0.00,,,0.20,WUHU216HW,2013-06-18 03:56:00,